PAL112 RPLL-RPVE
Flight info
| Callsign | PAL112 |
|---|---|
| Flight time | N/A |
| Altitude | 25000 |
| Route | VERDE2R VERDE W24 TAPER TAPER7A |
| Aircraft | A20N/M-SDE2E3FGHIRWXY/LB1 |
Departure
| Time | 2026-05-07 03:07 |
|---|---|
| Airport | Ninoy Aquino International Airport (RPLL) |
Arrival
| Time | N/A |
|---|---|
| Airport | Godofredo P. Ramos Airport (RPVE) |
| Time | Latitude | Longitude | Altitude | Speed | Heading |
|---|---|---|---|---|---|
| 2026-05-07 02:50 | 14.50356 | 121.00239 | 72 ft | 0 kts | 184° |
| 2026-05-07 03:03 | 14.50353 | 121.00241 | 72 ft | 1 kts | 163° |
| 2026-05-07 03:03 | 14.50348 | 121.00247 | 66 ft | 2 kts | 133° |
| 2026-05-07 03:03 | 14.50331 | 121.00272 | 72 ft | 6 kts | 126° |
| 2026-05-07 03:03 | 14.50290 | 121.00307 | 66 ft | 9 kts | 154° |
| 2026-05-07 03:04 | 14.50220 | 121.00311 | 65 ft | 11 kts | 177° |
| 2026-05-07 03:04 | 14.50146 | 121.00332 | 68 ft | 11 kts | 177° |
| 2026-05-07 03:04 | 14.50092 | 121.00282 | 70 ft | 11 kts | 241° |
| 2026-05-07 03:04 | 14.50053 | 121.00210 | 69 ft | 12 kts | 241° |
| 2026-05-07 03:05 | 14.50010 | 121.00132 | 84 ft | 13 kts | 240° |
| 2026-05-07 03:05 | 14.49966 | 121.00053 | 81 ft | 13 kts | 239° |
| 2026-05-07 03:05 | 14.49922 | 120.99983 | 84 ft | 9 kts | 226° |
| 2026-05-07 03:05 | 14.49876 | 120.99968 | 87 ft | 5 kts | 172° |
| 2026-05-07 03:06 | 14.49852 | 120.99976 | 85 ft | 3 kts | 155° |
| 2026-05-07 03:06 | 14.49834 | 120.99987 | 85 ft | 8 kts | 148° |
| 2026-05-07 03:06 | 14.49806 | 121.00061 | 85 ft | 14 kts | 63° |
| 2026-05-07 03:06 | 14.49939 | 121.00299 | 67 ft | 83 kts | 60° |
| 2026-05-07 03:07 | 14.50385 | 121.01100 | 135 ft | 164 kts | 60° |
| 2026-05-07 03:07 | 14.50976 | 121.02165 | 1188 ft | 173 kts | 60° |
| 2026-05-07 03:07 | 14.51572 | 121.03247 | 2429 ft | 178 kts | 59° |
| 2026-05-07 03:07 | 14.52232 | 121.04436 | 3255 ft | 201 kts | 59° |
| 2026-05-07 03:08 | 14.52937 | 121.05694 | 4148 ft | 206 kts | 59° |
| 2026-05-07 03:08 | 14.53666 | 121.07000 | 4592 ft | 212 kts | 59° |
| 2026-05-07 03:08 | 14.54401 | 121.08322 | 5497 ft | 211 kts | 59° |
| 2026-05-07 03:08 | 14.55136 | 121.09644 | 6214 ft | 215 kts | 59° |
| 2026-05-07 03:09 | 14.55884 | 121.10992 | 6602 ft | 215 kts | 59° |
| 2026-05-07 03:09 | 14.56540 | 121.12363 | 6825 ft | 219 kts | 77° |
| 2026-05-07 03:09 | 14.56336 | 121.13879 | 6943 ft | 218 kts | 120° |
| 2026-05-07 03:09 | 14.55452 | 121.15159 | 6972 ft | 218 kts | 130° |
| 2026-05-07 03:10 | 14.54452 | 121.16335 | 6986 ft | 217 kts | 134° |
| 2026-05-07 03:10 | 14.53416 | 121.17451 | 6992 ft | 217 kts | 135° |
| 2026-05-07 03:10 | 14.52342 | 121.18555 | 6994 ft | 217 kts | 136° |
| 2026-05-07 03:10 | 14.51263 | 121.19644 | 6997 ft | 217 kts | 136° |
| 2026-05-07 03:11 | 14.50187 | 121.20728 | 6998 ft | 216 kts | 136° |
| 2026-05-07 03:11 | 14.49108 | 121.21823 | 7001 ft | 217 kts | 136° |
| 2026-05-07 03:11 | 14.48039 | 121.22919 | 6993 ft | 217 kts | 136° |
| 2026-05-07 03:11 | 14.46978 | 121.24018 | 6998 ft | 216 kts | 135° |
| 2026-05-07 03:12 | 14.45818 | 121.24943 | 7003 ft | 214 kts | 162° |
| 2026-05-07 03:12 | 14.44377 | 121.24869 | 7015 ft | 213 kts | 208° |
| 2026-05-07 03:12 | 14.43266 | 121.23876 | 7015 ft | 211 kts | 228° |
| 2026-05-07 03:12 | 14.42304 | 121.22746 | 6998 ft | 210 kts | 231° |
| 2026-05-07 03:13 | 14.41369 | 121.21587 | 7001 ft | 211 kts | 231° |
| 2026-05-07 03:13 | 14.40436 | 121.20416 | 7098 ft | 207 kts | 231° |
| 2026-05-07 03:13 | 14.39501 | 121.19251 | 7417 ft | 215 kts | 231° |
| 2026-05-07 03:13 | 14.38534 | 121.18078 | 8334 ft | 215 kts | 230° |
| 2026-05-07 03:14 | 14.37491 | 121.16837 | 9043 ft | 239 kts | 229° |
| 2026-05-07 03:14 | 14.36354 | 121.15510 | 9882 ft | 256 kts | 229° |
| 2026-05-07 03:14 | 14.33766 | 121.12540 | 11336 ft | 302 kts | 228° |
| 2026-05-07 03:15 | 14.32294 | 121.10864 | 12083 ft | 323 kts | 228° |
| 2026-05-07 03:15 | 14.30740 | 121.09118 | 12851 ft | 341 kts | 226° |
| 2026-05-07 03:15 | 14.28950 | 121.07408 | 13637 ft | 358 kts | 221° |
| 2026-05-07 03:15 | 14.26983 | 121.05743 | 14423 ft | 373 kts | 219° |
| 2026-05-07 03:16 | 14.24916 | 121.04106 | 15183 ft | 386 kts | 217° |
| 2026-05-07 03:16 | 14.22764 | 121.02473 | 15988 ft | 396 kts | 216° |
| 2026-05-07 03:16 | 14.20476 | 121.00786 | 16938 ft | 402 kts | 216° |
| 2026-05-07 03:16 | 14.18198 | 120.99137 | 17814 ft | 408 kts | 215° |
| 2026-05-07 03:17 | 14.15863 | 120.97468 | 18659 ft | 414 kts | 215° |
| 2026-05-07 03:17 | 14.13482 | 120.95782 | 19472 ft | 419 kts | 215° |
| 2026-05-07 03:17 | 14.11046 | 120.94066 | 20256 ft | 425 kts | 214° |
| 2026-05-07 03:17 | 14.08576 | 120.92334 | 21033 ft | 429 kts | 214° |
| 2026-05-07 03:18 | 14.06929 | 120.91230 | 21586 ft | 431 kts | 210° |
| 2026-05-07 03:18 | 14.04079 | 120.90243 | 22319 ft | 438 kts | 188° |
| 2026-05-07 03:18 | 14.00970 | 120.90357 | 23001 ft | 444 kts | 172° |
| 2026-05-07 03:18 | 13.97948 | 120.90931 | 23633 ft | 449 kts | 168° |
| 2026-05-07 03:19 | 13.94908 | 120.91634 | 24299 ft | 449 kts | 167° |
| 2026-05-07 03:19 | 13.91080 | 120.92596 | 24766 ft | 406 kts | 166° |
| 2026-05-07 03:19 | 13.88353 | 120.93308 | 24893 ft | 410 kts | 166° |
| 2026-05-07 03:19 | 13.86489 | 120.93799 | 24941 ft | 414 kts | 166° |
| 2026-05-07 03:20 | 13.83692 | 120.94537 | 24971 ft | 414 kts | 166° |
| 2026-05-07 03:20 | 13.80900 | 120.95273 | 24984 ft | 413 kts | 166° |
| 2026-05-07 03:20 | 13.78109 | 120.96006 | 24990 ft | 413 kts | 166° |
| 2026-05-07 03:20 | 13.75323 | 120.96735 | 24999 ft | 413 kts | 166° |
| 2026-05-07 03:21 | 13.72559 | 120.97455 | 24998 ft | 412 kts | 166° |
| 2026-05-07 03:21 | 13.69757 | 120.98183 | 24996 ft | 412 kts | 166° |
| 2026-05-07 03:21 | 13.66998 | 120.98896 | 24998 ft | 412 kts | 166° |
| 2026-05-07 03:21 | 13.64209 | 120.99616 | 24997 ft | 413 kts | 166° |
| 2026-05-07 03:22 | 13.61441 | 121.00328 | 25002 ft | 413 kts | 166° |
| 2026-05-07 03:22 | 13.58624 | 121.01052 | 25000 ft | 412 kts | 166° |
| 2026-05-07 03:22 | 13.55884 | 121.01757 | 24994 ft | 412 kts | 166° |
| 2026-05-07 03:22 | 13.53116 | 121.02566 | 24996 ft | 413 kts | 158° |
| 2026-05-07 03:23 | 13.50547 | 121.03890 | 25006 ft | 414 kts | 151° |
| 2026-05-07 03:23 | 13.48062 | 121.05391 | 24996 ft | 414 kts | 149° |
| 2026-05-07 03:23 | 13.45622 | 121.06951 | 24994 ft | 414 kts | 148° |
| 2026-05-07 03:23 | 13.43212 | 121.08542 | 24998 ft | 413 kts | 147° |
| 2026-05-07 03:24 | 13.40802 | 121.10163 | 24994 ft | 413 kts | 147° |
| 2026-05-07 03:24 | 13.38398 | 121.11798 | 24993 ft | 414 kts | 147° |
| 2026-05-07 03:24 | 13.35990 | 121.13450 | 24993 ft | 414 kts | 146° |
| 2026-05-07 03:24 | 13.33639 | 121.15071 | 25001 ft | 414 kts | 146° |
| 2026-05-07 03:25 | 13.31247 | 121.16727 | 24995 ft | 413 kts | 146° |
| 2026-05-07 03:25 | 13.28829 | 121.18405 | 25002 ft | 414 kts | 146° |
| 2026-05-07 03:25 | 13.26476 | 121.20042 | 24996 ft | 414 kts | 146° |
| 2026-05-07 03:25 | 13.24087 | 121.21705 | 24993 ft | 414 kts | 146° |
| 2026-05-07 03:26 | 13.21676 | 121.23387 | 24997 ft | 414 kts | 146° |
| 2026-05-07 03:26 | 13.19296 | 121.25048 | 24995 ft | 413 kts | 146° |
| 2026-05-07 03:26 | 13.16956 | 121.26682 | 24896 ft | 413 kts | 146° |
| 2026-05-07 03:26 | 13.14586 | 121.28337 | 24217 ft | 409 kts | 146° |
| 2026-05-07 03:27 | 13.12237 | 121.29979 | 23398 ft | 404 kts | 146° |
| 2026-05-07 03:27 | 13.09972 | 121.31562 | 22973 ft | 389 kts | 146° |
| 2026-05-07 03:27 | 13.07746 | 121.33119 | 22594 ft | 374 kts | 146° |
| 2026-05-07 03:27 | 13.05675 | 121.34568 | 22243 ft | 361 kts | 146° |
| 2026-05-07 03:28 | 13.03617 | 121.36007 | 21895 ft | 349 kts | 146° |
| 2026-05-07 03:28 | 13.01655 | 121.37378 | 21549 ft | 338 kts | 146° |
| 2026-05-07 03:28 | 12.99719 | 121.38730 | 21028 ft | 333 kts | 146° |
| 2026-05-07 03:28 | 12.97804 | 121.40067 | 20470 ft | 331 kts | 146° |
| 2026-05-07 03:29 | 12.95911 | 121.41390 | 19930 ft | 328 kts | 146° |
| 2026-05-07 03:29 | 12.94055 | 121.42686 | 19389 ft | 325 kts | 146° |
| 2026-05-07 03:29 | 12.92168 | 121.44004 | 18842 ft | 322 kts | 146° |
| 2026-05-07 03:29 | 12.90326 | 121.45290 | 18304 ft | 320 kts | 146° |
| 2026-05-07 03:30 | 12.88489 | 121.46573 | 17759 ft | 317 kts | 146° |
| 2026-05-07 03:30 | 12.86701 | 121.47821 | 17234 ft | 314 kts | 146° |
| 2026-05-07 03:30 | 12.84905 | 121.49075 | 16712 ft | 312 kts | 146° |
| 2026-05-07 03:30 | 12.83120 | 121.50321 | 16180 ft | 309 kts | 146° |
| 2026-05-07 03:31 | 12.81323 | 121.51576 | 15648 ft | 307 kts | 146° |
| 2026-05-07 03:31 | 12.79583 | 121.52790 | 15130 ft | 304 kts | 146° |
| 2026-05-07 03:31 | 12.77856 | 121.53995 | 14609 ft | 302 kts | 146° |
| 2026-05-07 03:31 | 12.76119 | 121.55208 | 14085 ft | 299 kts | 146° |
| 2026-05-07 03:32 | 12.74408 | 121.56402 | 13583 ft | 297 kts | 146° |
| 2026-05-07 03:32 | 12.72693 | 121.57598 | 13056 ft | 295 kts | 146° |
| 2026-05-07 03:32 | 12.71005 | 121.58775 | 12569 ft | 292 kts | 146° |
| 2026-05-07 03:32 | 12.69353 | 121.59927 | 12329 ft | 280 kts | 146° |
| 2026-05-07 03:33 | 12.67779 | 121.61026 | 12106 ft | 269 kts | 146° |
| 2026-05-07 03:33 | 12.66250 | 121.62092 | 11715 ft | 265 kts | 146° |
| 2026-05-07 03:33 | 12.64727 | 121.63154 | 11309 ft | 263 kts | 146° |
| 2026-05-07 03:33 | 12.63222 | 121.64203 | 10894 ft | 262 kts | 146° |
| 2026-05-07 03:34 | 12.61739 | 121.65237 | 10483 ft | 260 kts | 146° |
| 2026-05-07 03:34 | 12.60253 | 121.66272 | 10077 ft | 258 kts | 146° |
| 2026-05-07 03:34 | 12.58773 | 121.67302 | 9666 ft | 256 kts | 146° |
| 2026-05-07 03:34 | 12.57302 | 121.68326 | 9254 ft | 255 kts | 146° |
| 2026-05-07 03:35 | 12.55836 | 121.69348 | 8850 ft | 253 kts | 146° |
| 2026-05-07 03:35 | 12.54389 | 121.70355 | 8446 ft | 252 kts | 146° |
| 2026-05-07 03:35 | 12.52944 | 121.71362 | 8044 ft | 250 kts | 146° |
| 2026-05-07 03:35 | 12.51517 | 121.72356 | 7652 ft | 249 kts | 146° |
| 2026-05-07 03:36 | 12.50089 | 121.73350 | 7248 ft | 247 kts | 146° |
| 2026-05-07 03:36 | 12.48666 | 121.74340 | 6856 ft | 246 kts | 146° |
| 2026-05-07 03:36 | 12.47254 | 121.75324 | 6451 ft | 244 kts | 146° |
| 2026-05-07 03:36 | 12.45868 | 121.76288 | 6066 ft | 243 kts | 146° |
| 2026-05-07 03:37 | 12.44460 | 121.77268 | 5665 ft | 241 kts | 146° |
| 2026-05-07 03:37 | 12.43076 | 121.78231 | 5288 ft | 240 kts | 146° |
| 2026-05-07 03:37 | 12.41703 | 121.79186 | 4910 ft | 238 kts | 146° |
| 2026-05-07 03:37 | 12.40345 | 121.80131 | 4525 ft | 237 kts | 146° |
| 2026-05-07 03:38 | 12.38986 | 121.81076 | 4143 ft | 236 kts | 146° |
| 2026-05-07 03:38 | 12.37550 | 121.81834 | 3744 ft | 233 kts | 171° |
| 2026-05-07 03:38 | 12.35947 | 121.81936 | 3462 ft | 226 kts | 182° |
| 2026-05-07 03:38 | 12.34407 | 121.81863 | 3347 ft | 213 kts | 186° |
| 2026-05-07 03:39 | 12.32970 | 121.81732 | 3245 ft | 200 kts | 187° |
| 2026-05-07 03:39 | 12.31607 | 121.81581 | 3105 ft | 199 kts | 188° |
| 2026-05-07 03:39 | 12.30245 | 121.81365 | 3047 ft | 198 kts | 192° |
| 2026-05-07 03:39 | 12.28895 | 121.81089 | 3024 ft | 198 kts | 193° |
| 2026-05-07 03:40 | 12.27552 | 121.80798 | 3012 ft | 197 kts | 193° |
| 2026-05-07 03:40 | 12.26213 | 121.80505 | 3004 ft | 197 kts | 193° |
| 2026-05-07 03:40 | 12.24859 | 121.80211 | 3001 ft | 198 kts | 193° |
| 2026-05-07 03:40 | 12.23515 | 121.79920 | 3000 ft | 197 kts | 193° |
| 2026-05-07 03:41 | 12.22179 | 121.79630 | 2999 ft | 197 kts | 193° |
| 2026-05-07 03:41 | 12.20826 | 121.79338 | 2999 ft | 198 kts | 193° |
| 2026-05-07 03:41 | 12.19482 | 121.79047 | 3002 ft | 198 kts | 193° |
| 2026-05-07 03:41 | 12.18148 | 121.78758 | 3003 ft | 197 kts | 193° |
| 2026-05-07 03:42 | 12.16799 | 121.78465 | 3005 ft | 198 kts | 193° |
| 2026-05-07 03:42 | 12.15433 | 121.78170 | 3003 ft | 198 kts | 193° |
| 2026-05-07 03:42 | 12.14109 | 121.77883 | 3003 ft | 197 kts | 193° |
| 2026-05-07 03:42 | 12.12766 | 121.77592 | 3003 ft | 198 kts | 193° |
| 2026-05-07 03:43 | 12.11400 | 121.77296 | 3002 ft | 197 kts | 193° |
| 2026-05-07 03:43 | 12.10076 | 121.77009 | 3012 ft | 198 kts | 193° |
| 2026-05-07 03:43 | 12.08737 | 121.76721 | 3012 ft | 188 kts | 193° |
| 2026-05-07 03:43 | 12.07477 | 121.76447 | 3005 ft | 186 kts | 193° |
| 2026-05-07 03:44 | 12.06213 | 121.76172 | 3001 ft | 186 kts | 193° |
| 2026-05-07 03:44 | 12.04938 | 121.75896 | 3001 ft | 187 kts | 193° |
| 2026-05-07 03:44 | 12.03668 | 121.75622 | 3000 ft | 187 kts | 193° |
| 2026-05-07 03:44 | 12.02388 | 121.75345 | 3001 ft | 187 kts | 193° |
| 2026-05-07 03:45 | 12.01116 | 121.75070 | 2999 ft | 187 kts | 193° |
| 2026-05-07 03:45 | 11.99840 | 121.74794 | 2998 ft | 188 kts | 193° |
| 2026-05-07 03:45 | 11.98580 | 121.74521 | 2998 ft | 187 kts | 193° |
| 2026-05-07 03:45 | 11.97302 | 121.74245 | 2998 ft | 187 kts | 193° |
| 2026-05-07 03:46 | 11.96017 | 121.73967 | 2998 ft | 187 kts | 193° |
| 2026-05-07 03:46 | 11.94763 | 121.73695 | 2999 ft | 187 kts | 193° |
| 2026-05-07 03:46 | 11.93488 | 121.73419 | 2999 ft | 187 kts | 193° |
| 2026-05-07 03:46 | 11.92202 | 121.73169 | 2999 ft | 188 kts | 184° |
| 2026-05-07 03:47 | 11.90915 | 121.73365 | 3001 ft | 189 kts | 167° |
| 2026-05-07 03:47 | 11.89656 | 121.73760 | 3004 ft | 185 kts | 161° |
| 2026-05-07 03:47 | 11.88567 | 121.74243 | 3003 ft | 168 kts | 156° |
| 2026-05-07 03:47 | 11.87512 | 121.74772 | 3001 ft | 169 kts | 154° |
| 2026-05-07 03:48 | 11.86468 | 121.75315 | 3000 ft | 168 kts | 154° |
| 2026-05-07 03:48 | 11.85426 | 121.75861 | 2999 ft | 169 kts | 154° |
| 2026-05-07 03:48 | 11.84722 | 121.76228 | 3000 ft | 169 kts | 154° |
| 2026-05-07 03:48 | 11.83734 | 121.76865 | 2999 ft | 170 kts | 130° |